sensor_id;sensor_type;location;lat;lon;timestamp;P1;durP1;ratioP1;P2;durP2;ratioP2
55684;SDS011;41883;49.544;8.646;2022-12-18T00:01:30;53.90;;;22.48;;
55684;SDS011;41883;49.544;8.646;2022-12-18T00:03:56;53.97;;;23.13;;
55684;SDS011;41883;49.544;8.646;2022-12-18T00:06:22;57.17;;;24.60;;
55684;SDS011;41883;49.544;8.646;2022-12-18T00:08:48;53.50;;;23.45;;
55684;SDS011;41883;49.544;8.646;2022-12-18T00:11:20;74.73;;;25.33;;
55684;SDS011;41883;49.544;8.646;2022-12-18T00:13:46;54.17;;;23.02;;
55684;SDS011;41883;49.544;8.646;2022-12-18T00:16:12;52.22;;;21.67;;
55684;SDS011;41883;49.544;8.646;2022-12-18T00:18:38;61.50;;;25.38;;
55684;SDS011;41883;49.544;8.646;2022-12-18T00:21:04;59.75;;;26.60;;
55684;SDS011;41883;49.544;8.646;2022-12-18T00:23:30;55.35;;;24.17;;
55684;SDS011;41883;49.544;8.646;2022-12-18T00:25:59;54.33;;;24.67;;
55684;SDS011;41883;49.544;8.646;2022-12-18T00:28:24;57.33;;;23.33;;
55684;SDS011;41883;49.544;8.646;2022-12-18T00:30:50;51.87;;;22.93;;
55684;SDS011;41883;49.544;8.646;2022-12-18T00:33:16;50.95;;;21.42;;
55684;SDS011;41883;49.544;8.646;2022-12-18T00:35:41;72.25;;;25.83;;
55684;SDS011;41883;49.544;8.646;2022-12-18T00:38:06;57.07;;;24.10;;
55684;SDS011;41883;49.544;8.646;2022-12-18T00:40:32;65.33;;;28.17;;
55684;SDS011;41883;49.544;8.646;2022-12-18T00:42:57;58.00;;;25.53;;
55684;SDS011;41883;49.544;8.646;2022-12-18T00:45:26;56.67;;;24.50;;
55684;SDS011;41883;49.544;8.646;2022-12-18T00:47:52;63.80;;;26.53;;
55684;SDS011;41883;49.544;8.646;2022-12-18T00:50:17;58.28;;;26.52;;
55684;SDS011;41883;49.544;8.646;2022-12-18T00:52:42;67.82;;;27.67;;
55684;SDS011;41883;49.544;8.646;2022-12-18T00:55:08;61.47;;;25.53;;
55684;SDS011;41883;49.544;8.646;2022-12-18T00:57:33;65.80;;;25.75;;
55684;SDS011;41883;49.544;8.646;2022-12-18T00:59:59;62.35;;;26.13;;
55684;SDS011;41883;49.544;8.646;2022-12-18T01:02:24;58.93;;;25.10;;
55684;SDS011;41883;49.544;8.646;2022-12-18T01:04:49;59.50;;;24.88;;
55684;SDS011;41883;49.544;8.646;2022-12-18T01:07:15;52.97;;;22.73;;
55684;SDS011;41883;49.544;8.646;2022-12-18T01:09:40;55.95;;;24.27;;
55684;SDS011;41883;49.544;8.646;2022-12-18T01:12:05;48.43;;;23.10;;
55684;SDS011;41883;49.544;8.646;2022-12-18T01:14:31;51.72;;;21.67;;
55684;SDS011;41883;49.544;8.646;2022-12-18T01:16:56;53.13;;;23.37;;
55684;SDS011;41883;49.544;8.646;2022-12-18T01:19:21;50.17;;;22.88;;
55684;SDS011;41883;49.544;8.646;2022-12-18T01:21:47;61.60;;;26.00;;
55684;SDS011;41883;49.544;8.646;2022-12-18T01:24:13;60.10;;;24.95;;
55684;SDS011;41883;49.544;8.646;2022-12-18T01:26:39;61.13;;;25.58;;
55684;SDS011;41883;49.544;8.646;2022-12-18T01:29:04;63.55;;;26.33;;
55684;SDS011;41883;49.544;8.646;2022-12-18T01:31:31;55.37;;;24.10;;
55684;SDS011;41883;49.544;8.646;2022-12-18T01:33:56;55.83;;;23.17;;
55684;SDS011;41883;49.544;8.646;2022-12-18T01:36:22;56.88;;;24.35;;
55684;SDS011;41883;49.544;8.646;2022-12-18T01:38:48;60.63;;;26.45;;
55684;SDS011;41883;49.544;8.646;2022-12-18T01:41:15;65.07;;;27.60;;
55684;SDS011;41883;49.544;8.646;2022-12-18T01:43:41;59.67;;;25.50;;
55684;SDS011;41883;49.544;8.646;2022-12-18T01:46:06;59.55;;;25.35;;
55684;SDS011;41883;49.544;8.646;2022-12-18T01:48:32;61.87;;;24.67;;
55684;SDS011;41883;49.544;8.646;2022-12-18T01:51:00;60.90;;;25.02;;
55684;SDS011;41883;49.544;8.646;2022-12-18T01:53:25;58.38;;;24.00;;
55684;SDS011;41883;49.544;8.646;2022-12-18T01:55:52;58.42;;;24.98;;
55684;SDS011;41883;49.544;8.646;2022-12-18T01:58:18;44.42;;;21.13;;
55684;SDS011;41883;49.544;8.646;2022-12-18T02:00:44;56.90;;;23.65;;
55684;SDS011;41883;49.544;8.646;2022-12-18T02:03:09;56.95;;;23.83;;
55684;SDS011;41883;49.544;8.646;2022-12-18T02:05:44;55.75;;;23.63;;
55684;SDS011;41883;49.544;8.646;2022-12-18T02:13:29;58.53;;;23.80;;
55684;SDS011;41883;49.544;8.646;2022-12-18T02:18:26;59.33;;;25.33;;
55684;SDS011;41883;49.544;8.646;2022-12-18T02:26:18;64.80;;;26.52;;
55684;SDS011;41883;49.544;8.646;2022-12-18T02:29:07;67.47;;;24.83;;
55684;SDS011;41883;49.544;8.646;2022-12-18T02:31:31;58.47;;;25.52;;
55684;SDS011;41883;49.544;8.646;2022-12-18T02:33:59;114.68;;;27.75;;
55684;SDS011;41883;49.544;8.646;2022-12-18T02:36:25;64.68;;;23.75;;
55684;SDS011;41883;49.544;8.646;2022-12-18T02:38:50;62.83;;;26.60;;
55684;SDS011;41883;49.544;8.646;2022-12-18T02:41:17;62.08;;;25.13;;
55684;SDS011;41883;49.544;8.646;2022-12-18T02:43:46;58.80;;;25.50;;
55684;SDS011;41883;49.544;8.646;2022-12-18T02:46:28;64.78;;;25.08;;
55684;SDS011;41883;49.544;8.646;2022-12-18T02:48:59;56.13;;;23.15;;
55684;SDS011;41883;49.544;8.646;2022-12-18T02:51:29;67.40;;;26.90;;
55684;SDS011;41883;49.544;8.646;2022-12-18T02:54:03;60.65;;;25.65;;
55684;SDS011;41883;49.544;8.646;2022-12-18T02:56:35;62.50;;;25.23;;
55684;SDS011;41883;49.544;8.646;2022-12-18T02:59:06;59.28;;;24.65;;
55684;SDS011;41883;49.544;8.646;2022-12-18T03:04:09;65.00;;;25.85;;
55684;SDS011;41883;49.544;8.646;2022-12-18T03:06:38;62.50;;;26.20;;
55684;SDS011;41883;49.544;8.646;2022-12-18T03:09:09;61.38;;;24.80;;
55684;SDS011;41883;49.544;8.646;2022-12-18T03:14:19;62.65;;;23.48;;
55684;SDS011;41883;49.544;8.646;2022-12-18T03:16:49;67.75;;;26.33;;
55684;SDS011;41883;49.544;8.646;2022-12-18T03:19:16;49.55;;;22.58;;
55684;SDS011;41883;49.544;8.646;2022-12-18T03:21:45;60.95;;;25.08;;
55684;SDS011;41883;49.544;8.646;2022-12-18T03:24:12;64.53;;;26.05;;
55684;SDS011;41883;49.544;8.646;2022-12-18T03:26:41;50.97;;;21.67;;
55684;SDS011;41883;49.544;8.646;2022-12-18T03:29:09;57.55;;;22.30;;
55684;SDS011;41883;49.544;8.646;2022-12-18T03:31:36;61.95;;;25.35;;
55684;SDS011;41883;49.544;8.646;2022-12-18T03:34:04;62.78;;;25.48;;
55684;SDS011;41883;49.544;8.646;2022-12-18T03:36:30;48.38;;;22.30;;
55684;SDS011;41883;49.544;8.646;2022-12-18T03:38:58;64.50;;;23.92;;
55684;SDS011;41883;49.544;8.646;2022-12-18T03:41:27;58.45;;;23.77;;
55684;SDS011;41883;49.544;8.646;2022-12-18T03:49:09;53.55;;;22.52;;
55684;SDS011;41883;49.544;8.646;2022-12-18T03:54:00;51.80;;;22.47;;
55684;SDS011;41883;49.544;8.646;2022-12-18T03:56:28;57.30;;;24.00;;
55684;SDS011;41883;49.544;8.646;2022-12-18T03:58:54;58.78;;;23.20;;
55684;SDS011;41883;49.544;8.646;2022-12-18T04:01:22;50.22;;;22.10;;
55684;SDS011;41883;49.544;8.646;2022-12-18T04:03:48;56.22;;;21.98;;
55684;SDS011;41883;49.544;8.646;2022-12-18T04:06:14;53.67;;;22.27;;
55684;SDS011;41883;49.544;8.646;2022-12-18T04:08:40;53.45;;;22.83;;
55684;SDS011;41883;49.544;8.646;2022-12-18T04:11:05;51.22;;;20.85;;
55684;SDS011;41883;49.544;8.646;2022-12-18T04:13:35;50.30;;;20.27;;
55684;SDS011;41883;49.544;8.646;2022-12-18T04:16:00;60.05;;;23.23;;
55684;SDS011;41883;49.544;8.646;2022-12-18T04:18:26;53.00;;;22.88;;
55684;SDS011;41883;49.544;8.646;2022-12-18T04:20:51;53.93;;;21.97;;
55684;SDS011;41883;49.544;8.646;2022-12-18T04:23:16;44.53;;;19.70;;
55684;SDS011;41883;49.544;8.646;2022-12-18T04:25:41;46.50;;;19.57;;
55684;SDS011;41883;49.544;8.646;2022-12-18T04:28:07;47.00;;;20.83;;
55684;SDS011;41883;49.544;8.646;2022-12-18T04:30:32;47.63;;;20.30;;
55684;SDS011;41883;49.544;8.646;2022-12-18T04:32:57;49.63;;;21.33;;
55684;SDS011;41883;49.544;8.646;2022-12-18T04:35:23;48.90;;;20.23;;
55684;SDS011;41883;49.544;8.646;2022-12-18T04:37:48;52.40;;;20.87;;
55684;SDS011;41883;49.544;8.646;2022-12-18T04:40:13;50.42;;;21.38;;
55684;SDS011;41883;49.544;8.646;2022-12-18T04:42:39;51.60;;;23.03;;
55684;SDS011;41883;49.544;8.646;2022-12-18T04:45:04;60.15;;;24.25;;
55684;SDS011;41883;49.544;8.646;2022-12-18T04:47:30;60.80;;;21.60;;
55684;SDS011;41883;49.544;8.646;2022-12-18T04:49:55;58.50;;;23.60;;
55684;SDS011;41883;49.544;8.646;2022-12-18T04:52:21;50.50;;;21.40;;
55684;SDS011;41883;49.544;8.646;2022-12-18T04:54:46;48.90;;;21.02;;
55684;SDS011;41883;49.544;8.646;2022-12-18T04:57:11;44.10;;;18.43;;
55684;SDS011;41883;49.544;8.646;2022-12-18T04:59:36;54.17;;;22.87;;
55684;SDS011;41883;49.544;8.646;2022-12-18T05:02:01;56.93;;;22.93;;
55684;SDS011;41883;49.544;8.646;2022-12-18T05:04:26;50.93;;;20.13;;
55684;SDS011;41883;49.544;8.646;2022-12-18T05:06:52;49.23;;;21.30;;
55684;SDS011;41883;49.544;8.646;2022-12-18T05:09:17;53.20;;;20.73;;
55684;SDS011;41883;49.544;8.646;2022-12-18T05:11:42;48.33;;;20.50;;
55684;SDS011;41883;49.544;8.646;2022-12-18T05:14:07;44.33;;;18.45;;
55684;SDS011;41883;49.544;8.646;2022-12-18T05:16:33;49.95;;;19.77;;
55684;SDS011;41883;49.544;8.646;2022-12-18T05:18:58;39.88;;;18.17;;
55684;SDS011;41883;49.544;8.646;2022-12-18T05:21:24;54.57;;;22.37;;
55684;SDS011;41883;49.544;8.646;2022-12-18T05:23:49;51.40;;;21.60;;
55684;SDS011;41883;49.544;8.646;2022-12-18T05:26:15;50.37;;;20.67;;
55684;SDS011;41883;49.544;8.646;2022-12-18T05:28:41;92.78;;;24.30;;
55684;SDS011;41883;49.544;8.646;2022-12-18T05:31:06;67.23;;;23.97;;
55684;SDS011;41883;49.544;8.646;2022-12-18T05:33:32;50.13;;;21.17;;
55684;SDS011;41883;49.544;8.646;2022-12-18T05:35:58;153.77;;;30.40;;
55684;SDS011;41883;49.544;8.646;2022-12-18T05:38:24;55.65;;;22.42;;
55684;SDS011;41883;49.544;8.646;2022-12-18T05:40:50;49.65;;;19.30;;
55684;SDS011;41883;49.544;8.646;2022-12-18T05:43:15;80.72;;;26.50;;
55684;SDS011;41883;49.544;8.646;2022-12-18T05:45:41;62.05;;;24.15;;
55684;SDS011;41883;49.544;8.646;2022-12-18T05:48:07;53.95;;;22.58;;
55684;SDS011;41883;49.544;8.646;2022-12-18T05:50:36;54.22;;;21.63;;
55684;SDS011;41883;49.544;8.646;2022-12-18T05:53:02;56.03;;;22.88;;
55684;SDS011;41883;49.544;8.646;2022-12-18T05:55:32;46.88;;;20.23;;
55684;SDS011;41883;49.544;8.646;2022-12-18T05:57:57;48.58;;;21.17;;
55684;SDS011;41883;49.544;8.646;2022-12-18T06:00:22;46.90;;;20.27;;
55684;SDS011;41883;49.544;8.646;2022-12-18T06:02:47;56.73;;;21.07;;
55684;SDS011;41883;49.544;8.646;2022-12-18T06:05:12;48.15;;;21.08;;
55684;SDS011;41883;49.544;8.646;2022-12-18T06:07:38;56.20;;;22.27;;
55684;SDS011;41883;49.544;8.646;2022-12-18T06:10:03;49.93;;;21.50;;
55684;SDS011;41883;49.544;8.646;2022-12-18T06:12:28;53.90;;;21.75;;
55684;SDS011;41883;49.544;8.646;2022-12-18T06:14:53;46.73;;;21.33;;
55684;SDS011;41883;49.544;8.646;2022-12-18T06:17:19;58.58;;;23.48;;
55684;SDS011;41883;49.544;8.646;2022-12-18T06:19:44;53.57;;;23.07;;
55684;SDS011;41883;49.544;8.646;2022-12-18T06:22:09;48.20;;;20.73;;
55684;SDS011;41883;49.544;8.646;2022-12-18T06:24:34;60.03;;;21.30;;
55684;SDS011;41883;49.544;8.646;2022-12-18T06:26:59;54.08;;;20.25;;
55684;SDS011;41883;49.544;8.646;2022-12-18T06:29:25;48.87;;;21.20;;
55684;SDS011;41883;49.544;8.646;2022-12-18T06:31:50;87.47;;;25.50;;
55684;SDS011;41883;49.544;8.646;2022-12-18T06:34:18;53.93;;;21.93;;
55684;SDS011;41883;49.544;8.646;2022-12-18T06:36:43;55.38;;;22.02;;
55684;SDS011;41883;49.544;8.646;2022-12-18T06:39:08;53.42;;;21.67;;
55684;SDS011;41883;49.544;8.646;2022-12-18T06:41:33;59.57;;;23.77;;
55684;SDS011;41883;49.544;8.646;2022-12-18T06:43:59;47.87;;;20.03;;
55684;SDS011;41883;49.544;8.646;2022-12-18T06:46:24;42.93;;;18.47;;
55684;SDS011;41883;49.544;8.646;2022-12-18T06:48:49;48.80;;;19.80;;
55684;SDS011;41883;49.544;8.646;2022-12-18T06:51:22;53.65;;;20.45;;
55684;SDS011;41883;49.544;8.646;2022-12-18T06:53:47;92.05;;;24.75;;
55684;SDS011;41883;49.544;8.646;2022-12-18T06:56:12;46.87;;;20.23;;
55684;SDS011;41883;49.544;8.646;2022-12-18T06:58:38;43.00;;;19.40;;
55684;SDS011;41883;49.544;8.646;2022-12-18T07:01:04;51.92;;;20.90;;
55684;SDS011;41883;49.544;8.646;2022-12-18T07:03:29;45.75;;;19.45;;
55684;SDS011;41883;49.544;8.646;2022-12-18T07:05:55;47.70;;;19.77;;
55684;SDS011;41883;49.544;8.646;2022-12-18T07:08:20;49.03;;;20.77;;
55684;SDS011;41883;49.544;8.646;2022-12-18T07:10:45;57.95;;;22.83;;
55684;SDS011;41883;49.544;8.646;2022-12-18T07:13:11;52.13;;;20.13;;
55684;SDS011;41883;49.544;8.646;2022-12-18T07:15:36;40.93;;;16.80;;
55684;SDS011;41883;49.544;8.646;2022-12-18T07:18:01;41.10;;;16.92;;
55684;SDS011;41883;49.544;8.646;2022-12-18T07:20:27;45.35;;;19.08;;
55684;SDS011;41883;49.544;8.646;2022-12-18T07:22:52;76.40;;;21.07;;
55684;SDS011;41883;49.544;8.646;2022-12-18T07:25:17;42.42;;;17.58;;
55684;SDS011;41883;49.544;8.646;2022-12-18T07:27:42;51.27;;;19.57;;
55684;SDS011;41883;49.544;8.646;2022-12-18T07:30:07;52.30;;;20.20;;
55684;SDS011;41883;49.544;8.646;2022-12-18T07:32:33;48.97;;;20.13;;
55684;SDS011;41883;49.544;8.646;2022-12-18T07:34:59;53.20;;;21.30;;
55684;SDS011;41883;49.544;8.646;2022-12-18T07:37:24;45.27;;;19.60;;
55684;SDS011;41883;49.544;8.646;2022-12-18T07:39:49;46.58;;;19.73;;
55684;SDS011;41883;49.544;8.646;2022-12-18T07:42:14;48.53;;;19.13;;
55684;SDS011;41883;49.544;8.646;2022-12-18T07:45:01;41.35;;;18.15;;
55684;SDS011;41883;49.544;8.646;2022-12-18T07:47:27;43.45;;;19.13;;
55684;SDS011;41883;49.544;8.646;2022-12-18T07:49:53;60.17;;;20.95;;
55684;SDS011;41883;49.544;8.646;2022-12-18T07:52:18;42.90;;;18.17;;
55684;SDS011;41883;49.544;8.646;2022-12-18T07:54:43;69.83;;;23.73;;
55684;SDS011;41883;49.544;8.646;2022-12-18T07:57:08;45.28;;;19.10;;
55684;SDS011;41883;49.544;8.646;2022-12-18T07:59:34;40.30;;;16.87;;
55684;SDS011;41883;49.544;8.646;2022-12-18T08:01:59;40.10;;;16.88;;
55684;SDS011;41883;49.544;8.646;2022-12-18T08:04:25;42.07;;;17.63;;
55684;SDS011;41883;49.544;8.646;2022-12-18T08:06:50;41.58;;;16.35;;
55684;SDS011;41883;49.544;8.646;2022-12-18T08:09:15;50.15;;;20.05;;
55684;SDS011;41883;49.544;8.646;2022-12-18T08:11:41;43.47;;;18.42;;
55684;SDS011;41883;49.544;8.646;2022-12-18T08:14:06;42.65;;;19.25;;
55684;SDS011;41883;49.544;8.646;2022-12-18T08:16:31;51.25;;;21.58;;
55684;SDS011;41883;49.544;8.646;2022-12-18T08:18:56;50.13;;;21.07;;
55684;SDS011;41883;49.544;8.646;2022-12-18T08:21:23;45.13;;;19.83;;
55684;SDS011;41883;49.544;8.646;2022-12-18T08:23:49;47.03;;;19.90;;
55684;SDS011;41883;49.544;8.646;2022-12-18T08:26:14;53.40;;;20.98;;
55684;SDS011;41883;49.544;8.646;2022-12-18T08:28:40;48.70;;;21.10;;
55684;SDS011;41883;49.544;8.646;2022-12-18T08:31:06;47.83;;;19.88;;
55684;SDS011;41883;49.544;8.646;2022-12-18T08:33:31;51.53;;;21.33;;
55684;SDS011;41883;49.544;8.646;2022-12-18T08:35:58;48.57;;;21.13;;
55684;SDS011;41883;49.544;8.646;2022-12-18T08:38:24;54.72;;;23.02;;
55684;SDS011;41883;49.544;8.646;2022-12-18T08:40:49;52.07;;;21.60;;
55684;SDS011;41883;49.544;8.646;2022-12-18T08:43:14;58.50;;;23.33;;
55684;SDS011;41883;49.544;8.646;2022-12-18T08:45:58;51.53;;;23.05;;
55684;SDS011;41883;49.544;8.646;2022-12-18T08:48:23;60.58;;;24.23;;
55684;SDS011;41883;49.544;8.646;2022-12-18T08:50:55;64.10;;;25.15;;
55684;SDS011;41883;49.544;8.646;2022-12-18T08:53:21;62.53;;;24.80;;
55684;SDS011;41883;49.544;8.646;2022-12-18T08:55:46;64.20;;;26.15;;
55684;SDS011;41883;49.544;8.646;2022-12-18T08:58:11;65.53;;;26.70;;
55684;SDS011;41883;49.544;8.646;2022-12-18T09:00:36;69.43;;;27.17;;
55684;SDS011;41883;49.544;8.646;2022-12-18T09:03:02;62.00;;;24.07;;
55684;SDS011;41883;49.544;8.646;2022-12-18T09:05:27;63.80;;;25.53;;
55684;SDS011;41883;49.544;8.646;2022-12-18T09:07:52;59.53;;;25.23;;
55684;SDS011;41883;49.544;8.646;2022-12-18T09:10:17;55.28;;;24.58;;
55684;SDS011;41883;49.544;8.646;2022-12-18T09:12:42;57.33;;;23.93;;
55684;SDS011;41883;49.544;8.646;2022-12-18T09:15:08;60.00;;;25.97;;
55684;SDS011;41883;49.544;8.646;2022-12-18T09:17:33;68.13;;;29.00;;
55684;SDS011;41883;49.544;8.646;2022-12-18T09:19:58;68.47;;;25.70;;
55684;SDS011;41883;49.544;8.646;2022-12-18T09:22:23;58.43;;;25.50;;
55684;SDS011;41883;49.544;8.646;2022-12-18T09:24:48;62.92;;;25.90;;
55684;SDS011;41883;49.544;8.646;2022-12-18T09:27:14;59.03;;;24.80;;
55684;SDS011;41883;49.544;8.646;2022-12-18T09:29:39;53.70;;;24.27;;
55684;SDS011;41883;49.544;8.646;2022-12-18T09:32:04;58.63;;;24.27;;
55684;SDS011;41883;49.544;8.646;2022-12-18T09:34:29;57.67;;;24.55;;
55684;SDS011;41883;49.544;8.646;2022-12-18T09:36:54;64.00;;;26.70;;
55684;SDS011;41883;49.544;8.646;2022-12-18T09:39:20;62.37;;;25.07;;
55684;SDS011;41883;49.544;8.646;2022-12-18T09:41:46;60.50;;;25.40;;
55684;SDS011;41883;49.544;8.646;2022-12-18T09:44:28;71.18;;;27.63;;
55684;SDS011;41883;49.544;8.646;2022-12-18T09:47:00;68.57;;;28.10;;
55684;SDS011;41883;49.544;8.646;2022-12-18T09:49:28;58.03;;;25.58;;
55684;SDS011;41883;49.544;8.646;2022-12-18T09:54:39;62.45;;;24.63;;
55684;SDS011;41883;49.544;8.646;2022-12-18T09:57:05;60.80;;;26.50;;
55684;SDS011;41883;49.544;8.646;2022-12-18T09:59:37;56.30;;;26.00;;
55684;SDS011;41883;49.544;8.646;2022-12-18T10:02:19;54.35;;;24.33;;
55684;SDS011;41883;49.544;8.646;2022-12-18T10:04:47;54.65;;;23.50;;
55684;SDS011;41883;49.544;8.646;2022-12-18T10:10:23;54.78;;;23.95;;
55684;SDS011;41883;49.544;8.646;2022-12-18T10:12:42;50.80;;;23.30;;
55684;SDS011;41883;49.544;8.646;2022-12-18T10:15:15;52.08;;;23.08;;
55684;SDS011;41883;49.544;8.646;2022-12-18T10:17:51;52.20;;;24.75;;
55684;SDS011;41883;49.544;8.646;2022-12-18T10:22:50;57.35;;;24.98;;
55684;SDS011;41883;49.544;8.646;2022-12-18T10:25:20;48.80;;;23.73;;
55684;SDS011;41883;49.544;8.646;2022-12-18T10:27:46;53.35;;;25.40;;
55684;SDS011;41883;49.544;8.646;2022-12-18T10:30:13;55.78;;;25.98;;
55684;SDS011;41883;49.544;8.646;2022-12-18T10:32:39;54.33;;;25.65;;
55684;SDS011;41883;49.544;8.646;2022-12-18T10:35:07;53.83;;;23.17;;
55684;SDS011;41883;49.544;8.646;2022-12-18T10:37:59;52.25;;;24.48;;
55684;SDS011;41883;49.544;8.646;2022-12-18T10:40:24;47.75;;;21.33;;
55684;SDS011;41883;49.544;8.646;2022-12-18T10:43:02;43.63;;;21.53;;
55684;SDS011;41883;49.544;8.646;2022-12-18T10:45:28;54.17;;;24.55;;
55684;SDS011;41883;49.544;8.646;2022-12-18T10:47:53;47.00;;;22.80;;
55684;SDS011;41883;49.544;8.646;2022-12-18T10:50:20;55.13;;;25.10;;
55684;SDS011;41883;49.544;8.646;2022-12-18T10:52:53;53.80;;;25.15;;
55684;SDS011;41883;49.544;8.646;2022-12-18T10:55:19;59.25;;;27.05;;
55684;SDS011;41883;49.544;8.646;2022-12-18T10:57:44;51.00;;;23.25;;
55684;SDS011;41883;49.544;8.646;2022-12-18T11:00:27;55.90;;;26.43;;
55684;SDS011;41883;49.544;8.646;2022-12-18T11:02:52;51.72;;;24.35;;
55684;SDS011;41883;49.544;8.646;2022-12-18T11:07:50;54.13;;;25.17;;
55684;SDS011;41883;49.544;8.646;2022-12-18T11:10:18;62.17;;;26.85;;
55684;SDS011;41883;49.544;8.646;2022-12-18T11:12:44;53.08;;;24.90;;
55684;SDS011;41883;49.544;8.646;2022-12-18T11:18:04;52.38;;;25.60;;
55684;SDS011;41883;49.544;8.646;2022-12-18T11:20:34;55.43;;;24.67;;
55684;SDS011;41883;49.544;8.646;2022-12-18T11:25:25;58.88;;;26.80;;
55684;SDS011;41883;49.544;8.646;2022-12-18T11:28:03;56.83;;;25.75;;
55684;SDS011;41883;49.544;8.646;2022-12-18T11:30:36;52.53;;;24.50;;
55684;SDS011;41883;49.544;8.646;2022-12-18T11:35:37;56.00;;;26.27;;
55684;SDS011;41883;49.544;8.646;2022-12-18T11:38:12;53.28;;;24.92;;
55684;SDS011;41883;49.544;8.646;2022-12-18T11:40:40;54.63;;;24.90;;
55684;SDS011;41883;49.544;8.646;2022-12-18T11:43:09;57.55;;;27.50;;
55684;SDS011;41883;49.544;8.646;2022-12-18T11:45:35;52.58;;;24.67;;
55684;SDS011;41883;49.544;8.646;2022-12-18T11:48:14;55.45;;;26.10;;
55684;SDS011;41883;49.544;8.646;2022-12-18T11:53:13;52.47;;;25.38;;
55684;SDS011;41883;49.544;8.646;2022-12-18T11:55:41;55.20;;;24.85;;
55684;SDS011;41883;49.544;8.646;2022-12-18T12:01:01;58.28;;;27.75;;
55684;SDS011;41883;49.544;8.646;2022-12-18T12:03:42;57.85;;;27.55;;
55684;SDS011;41883;49.544;8.646;2022-12-18T12:06:19;53.15;;;25.20;;
55684;SDS011;41883;49.544;8.646;2022-12-18T12:08:53;56.13;;;26.55;;
55684;SDS011;41883;49.544;8.646;2022-12-18T12:11:35;59.38;;;27.40;;
55684;SDS011;41883;49.544;8.646;2022-12-18T12:24:14;52.38;;;25.45;;
55684;SDS011;41883;49.544;8.646;2022-12-18T12:29:32;57.90;;;26.63;;
55684;SDS011;41883;49.544;8.646;2022-12-18T12:34:23;60.07;;;28.17;;
55684;SDS011;41883;49.544;8.646;2022-12-18T12:39:21;55.90;;;27.50;;
55684;SDS011;41883;49.544;8.646;2022-12-18T12:41:47;62.35;;;29.45;;
55684;SDS011;41883;49.544;8.646;2022-12-18T12:44:33;58.33;;;27.33;;
55684;SDS011;41883;49.544;8.646;2022-12-18T12:47:00;56.78;;;25.75;;
55684;SDS011;41883;49.544;8.646;2022-12-18T12:49:28;63.70;;;30.98;;
55684;SDS011;41883;49.544;8.646;2022-12-18T12:52:00;58.40;;;27.70;;
55684;SDS011;41883;49.544;8.646;2022-12-18T12:54:28;61.13;;;30.30;;
55684;SDS011;41883;49.544;8.646;2022-12-18T12:56:58;60.72;;;29.48;;
55684;SDS011;41883;49.544;8.646;2022-12-18T13:04:43;60.80;;;29.35;;
55684;SDS011;41883;49.544;8.646;2022-12-18T13:10:10;66.32;;;30.67;;
55684;SDS011;41883;49.544;8.646;2022-12-18T13:12:22;60.58;;;30.02;;
55684;SDS011;41883;49.544;8.646;2022-12-18T13:15:13;60.85;;;28.40;;
55684;SDS011;41883;49.544;8.646;2022-12-18T13:17:45;55.53;;;27.00;;
55684;SDS011;41883;49.544;8.646;2022-12-18T13:20:11;50.78;;;24.65;;
55684;SDS011;41883;49.544;8.646;2022-12-18T13:22:38;60.83;;;28.55;;
55684;SDS011;41883;49.544;8.646;2022-12-18T13:25:26;66.28;;;30.52;;
55684;SDS011;41883;49.544;8.646;2022-12-18T13:28:22;62.05;;;29.88;;
55684;SDS011;41883;49.544;8.646;2022-12-18T13:30:42;60.42;;;28.00;;
55684;SDS011;41883;49.544;8.646;2022-12-18T13:45:45;58.42;;;27.30;;
55684;SDS011;41883;49.544;8.646;2022-12-18T13:48:21;49.35;;;25.00;;
55684;SDS011;41883;49.544;8.646;2022-12-18T13:50:52;46.60;;;23.75;;
55684;SDS011;41883;49.544;8.646;2022-12-18T13:53:20;51.20;;;25.40;;
55684;SDS011;41883;49.544;8.646;2022-12-18T13:55:46;56.03;;;27.23;;
55684;SDS011;41883;49.544;8.646;2022-12-18T13:58:11;59.20;;;27.65;;
55684;SDS011;41883;49.544;8.646;2022-12-18T14:00:40;59.58;;;29.20;;
55684;SDS011;41883;49.544;8.646;2022-12-18T14:03:16;60.38;;;28.85;;
55684;SDS011;41883;49.544;8.646;2022-12-18T14:05:43;56.15;;;26.90;;
55684;SDS011;41883;49.544;8.646;2022-12-18T14:08:18;54.55;;;26.13;;
55684;SDS011;41883;49.544;8.646;2022-12-18T14:10:44;48.78;;;26.23;;
55684;SDS011;41883;49.544;8.646;2022-12-18T14:20:25;47.87;;;22.10;;
55684;SDS011;41883;49.544;8.646;2022-12-18T14:22:51;40.13;;;20.30;;
55684;SDS011;41883;49.544;8.646;2022-12-18T14:25:21;48.83;;;24.38;;
55684;SDS011;41883;49.544;8.646;2022-12-18T14:27:49;49.78;;;24.45;;
55684;SDS011;41883;49.544;8.646;2022-12-18T14:38:26;50.10;;;24.42;;
55684;SDS011;41883;49.544;8.646;2022-12-18T14:40:52;55.28;;;26.67;;
55684;SDS011;41883;49.544;8.646;2022-12-18T14:43:18;55.13;;;26.92;;
55684;SDS011;41883;49.544;8.646;2022-12-18T14:45:43;57.15;;;28.13;;
55684;SDS011;41883;49.544;8.646;2022-12-18T14:48:19;49.45;;;24.27;;
55684;SDS011;41883;49.544;8.646;2022-12-18T14:50:45;44.35;;;22.33;;
55684;SDS011;41883;49.544;8.646;2022-12-18T14:53:19;50.75;;;24.67;;
55684;SDS011;41883;49.544;8.646;2022-12-18T14:55:46;46.65;;;22.20;;
55684;SDS011;41883;49.544;8.646;2022-12-18T14:58:12;47.70;;;22.38;;
55684;SDS011;41883;49.544;8.646;2022-12-18T15:00:40;52.00;;;24.73;;
55684;SDS011;41883;49.544;8.646;2022-12-18T15:03:06;45.45;;;22.67;;
55684;SDS011;41883;49.544;8.646;2022-12-18T15:05:32;43.40;;;21.80;;
55684;SDS011;41883;49.544;8.646;2022-12-18T15:07:59;43.90;;;20.73;;
55684;SDS011;41883;49.544;8.646;2022-12-18T15:10:26;44.72;;;21.50;;
55684;SDS011;41883;49.544;8.646;2022-12-18T15:17:58;54.13;;;24.50;;
55684;SDS011;41883;49.544;8.646;2022-12-18T15:20:23;51.10;;;24.95;;
55684;SDS011;41883;49.544;8.646;2022-12-18T15:22:48;48.35;;;25.17;;
55684;SDS011;41883;49.544;8.646;2022-12-18T15:27:48;53.17;;;26.95;;
55684;SDS011;41883;49.544;8.646;2022-12-18T15:30:20;58.83;;;27.73;;
55684;SDS011;41883;49.544;8.646;2022-12-18T15:32:46;56.50;;;25.77;;
55684;SDS011;41883;49.544;8.646;2022-12-18T15:35:16;53.70;;;26.45;;
55684;SDS011;41883;49.544;8.646;2022-12-18T15:37:42;57.07;;;27.73;;
55684;SDS011;41883;49.544;8.646;2022-12-18T15:40:08;60.92;;;28.50;;
55684;SDS011;41883;49.544;8.646;2022-12-18T15:42:36;55.95;;;26.65;;
55684;SDS011;41883;49.544;8.646;2022-12-18T15:45:20;49.88;;;23.80;;
55684;SDS011;41883;49.544;8.646;2022-12-18T15:47:45;49.63;;;24.27;;
55684;SDS011;41883;49.544;8.646;2022-12-18T15:50:10;52.23;;;25.20;;
55684;SDS011;41883;49.544;8.646;2022-12-18T15:52:40;50.97;;;24.55;;
55684;SDS011;41883;49.544;8.646;2022-12-18T15:55:13;50.45;;;23.80;;
55684;SDS011;41883;49.544;8.646;2022-12-18T15:57:57;41.55;;;21.27;;
55684;SDS011;41883;49.544;8.646;2022-12-18T16:00:23;42.17;;;20.87;;
55684;SDS011;41883;49.544;8.646;2022-12-18T16:02:48;43.63;;;21.10;;
55684;SDS011;41883;49.544;8.646;2022-12-18T16:05:14;59.03;;;29.37;;
55684;SDS011;41883;49.544;8.646;2022-12-18T16:07:39;54.67;;;26.05;;
55684;SDS011;41883;49.544;8.646;2022-12-18T16:10:05;52.73;;;26.37;;
55684;SDS011;41883;49.544;8.646;2022-12-18T16:12:30;56.88;;;26.83;;
55684;SDS011;41883;49.544;8.646;2022-12-18T16:14:55;58.80;;;26.58;;